sensor_id;sensor_type;location;lat;lon;timestamp;pressure;altitude;pressure_sealevel;temperature;humidity
57234;BME280;43090;52.604;13.318;2022-11-30T00:01:41;101760.94;;;3.75;98.13
57234;BME280;43090;52.604;13.318;2022-11-30T00:04:07;101763.69;;;3.70;99.54
57234;BME280;43090;52.604;13.318;2022-11-30T00:06:34;101773.91;;;3.51;99.74
57234;BME280;43090;52.604;13.318;2022-11-30T00:09:00;101769.78;;;3.74;99.81
57234;BME280;43090;52.604;13.318;2022-11-30T00:11:27;101775.94;;;3.74;98.80
57234;BME280;43090;52.604;13.318;2022-11-30T00:13:53;101781.16;;;3.43;100.00
57234;BME280;43090;52.604;13.318;2022-11-30T00:16:20;101781.06;;;3.46;100.00
57234;BME280;43090;52.604;13.318;2022-11-30T00:18:47;101785.47;;;3.47;100.00
57234;BME280;43090;52.604;13.318;2022-11-30T00:21:13;101786.91;;;3.60;100.00
57234;BME280;43090;52.604;13.318;2022-11-30T00:23:41;101788.59;;;3.63;100.00
57234;BME280;43090;52.604;13.318;2022-11-30T00:26:09;101788.03;;;3.50;100.00
57234;BME280;43090;52.604;13.318;2022-11-30T00:28:36;101783.88;;;3.74;99.76
57234;BME280;43090;52.604;13.318;2022-11-30T00:31:04;101792.97;;;3.65;100.00
57234;BME280;43090;52.604;13.318;2022-11-30T00:33:31;101784.59;;;3.46;100.00
57234;BME280;43090;52.604;13.318;2022-11-30T00:35:58;101782.28;;;3.69;100.00
57234;BME280;43090;52.604;13.318;2022-11-30T00:38:25;101782.31;;;3.67;100.00
57234;BME280;43090;52.604;13.318;2022-11-30T00:40:51;101767.25;;;3.69;99.92
57234;BME280;43090;52.604;13.318;2022-11-30T00:43:18;101783.13;;;3.69;99.29
57234;BME280;43090;52.604;13.318;2022-11-30T00:45:44;101774.94;;;3.80;99.34
57234;BME280;43090;52.604;13.318;2022-11-30T00:48:11;101782.94;;;3.77;99.21
57234;BME280;43090;52.604;13.318;2022-11-30T00:50:37;101783.53;;;3.88;99.10
57234;BME280;43090;52.604;13.318;2022-11-30T00:53:03;101782.28;;;3.69;99.83
57234;BME280;43090;52.604;13.318;2022-11-30T00:55:30;101785.06;;;3.64;100.00
57234;BME280;43090;52.604;13.318;2022-11-30T00:57:58;101794.72;;;3.66;99.87
57234;BME280;43090;52.604;13.318;2022-11-30T01:00:25;101795.66;;;3.62;99.95
57234;BME280;43090;52.604;13.318;2022-11-30T01:02:53;101799.66;;;3.44;100.00
57234;BME280;43090;52.604;13.318;2022-11-30T01:05:19;101801.19;;;3.55;100.00
57234;BME280;43090;52.604;13.318;2022-11-30T01:07:46;101796.50;;;3.64;99.93
57234;BME280;43090;52.604;13.318;2022-11-30T01:10:12;101793.72;;;3.71;99.07
57234;BME280;43090;52.604;13.318;2022-11-30T01:12:38;101794.53;;;3.73;98.22
57234;BME280;43090;52.604;13.318;2022-11-30T01:15:05;101794.66;;;3.68;98.39
57234;BME280;43090;52.604;13.318;2022-11-30T01:17:32;101801.75;;;3.66;99.11
57234;BME280;43090;52.604;13.318;2022-11-30T01:19:58;101798.47;;;3.56;99.68
57234;BME280;43090;52.604;13.318;2022-11-30T01:22:24;101813.03;;;3.74;99.02
57234;BME280;43090;52.604;13.318;2022-11-30T01:24:51;101806.63;;;3.48;99.98
57234;BME280;43090;52.604;13.318;2022-11-30T01:27:17;101814.38;;;3.56;99.83
57234;BME280;43090;52.604;13.318;2022-11-30T01:29:44;101810.03;;;3.54;99.30
57234;BME280;43090;52.604;13.318;2022-11-30T01:32:10;101809.19;;;3.52;99.86
57234;BME280;43090;52.604;13.318;2022-11-30T01:34:36;101810.06;;;3.50;99.50
57234;BME280;43090;52.604;13.318;2022-11-30T01:37:03;101801.19;;;3.53;99.43
57234;BME280;43090;52.604;13.318;2022-11-30T01:39:29;101809.84;;;3.60;98.90
57234;BME280;43090;52.604;13.318;2022-11-30T01:41:55;101813.88;;;3.39;99.06
57234;BME280;43090;52.604;13.318;2022-11-30T01:47:02;101803.91;;;3.50;98.84
57234;BME280;43090;52.604;13.318;2022-11-30T01:49:30;101805.25;;;3.68;98.62
57234;BME280;43090;52.604;13.318;2022-11-30T01:52:03;101806.25;;;3.62;98.41
57234;BME280;43090;52.604;13.318;2022-11-30T01:54:31;101802.47;;;3.73;98.12
57234;BME280;43090;52.604;13.318;2022-11-30T01:57:03;101801.75;;;3.66;98.36
57234;BME280;43090;52.604;13.318;2022-11-30T01:59:30;101807.09;;;3.64;98.29
57234;BME280;43090;52.604;13.318;2022-11-30T02:01:57;101804.19;;;3.39;99.53
57234;BME280;43090;52.604;13.318;2022-11-30T02:04:25;101803.47;;;3.69;98.90
57234;BME280;43090;52.604;13.318;2022-11-30T02:06:53;101805.88;;;3.78;98.25
57234;BME280;43090;52.604;13.318;2022-11-30T02:09:21;101806.97;;;3.69;98.62
57234;BME280;43090;52.604;13.318;2022-11-30T02:11:48;101817.16;;;3.50;98.79
57234;BME280;43090;52.604;13.318;2022-11-30T02:14:36;101812.00;;;3.45;99.52
57234;BME280;43090;52.604;13.318;2022-11-30T02:25:09;101810.69;;;3.26;100.00
57234;BME280;43090;52.604;13.318;2022-11-30T02:30:14;101804.00;;;3.47;99.18
57234;BME280;43090;52.604;13.318;2022-11-30T02:32:49;101814.25;;;3.61;98.69
57234;BME280;43090;52.604;13.318;2022-11-30T02:35:20;101810.19;;;3.46;99.38
57234;BME280;43090;52.604;13.318;2022-11-30T02:37:47;101817.47;;;3.38;98.65
57234;BME280;43090;52.604;13.318;2022-11-30T02:40:17;101816.31;;;3.49;98.39
57234;BME280;43090;52.604;13.318;2022-11-30T02:42:46;101808.34;;;3.49;98.37
57234;BME280;43090;52.604;13.318;2022-11-30T02:45:12;101812.88;;;3.44;99.04
57234;BME280;43090;52.604;13.318;2022-11-30T02:47:40;101815.50;;;3.46;98.37
57234;BME280;43090;52.604;13.318;2022-11-30T02:52:51;101828.81;;;3.43;99.11
57234;BME280;43090;52.604;13.318;2022-11-30T02:55:18;101822.00;;;3.32;98.68
57234;BME280;43090;52.604;13.318;2022-11-30T02:57:45;101822.03;;;3.31;99.70
57234;BME280;43090;52.604;13.318;2022-11-30T03:00:13;101820.78;;;3.46;98.96
57234;BME280;43090;52.604;13.318;2022-11-30T03:02:40;101814.88;;;3.34;99.49
57234;BME280;43090;52.604;13.318;2022-11-30T03:05:07;101822.53;;;3.47;98.76
57234;BME280;43090;52.604;13.318;2022-11-30T03:07:34;101816.41;;;3.45;99.35
57234;BME280;43090;52.604;13.318;2022-11-30T03:10:00;101819.41;;;3.29;99.72
57234;BME280;43090;52.604;13.318;2022-11-30T03:12:27;101825.31;;;3.41;99.76
57234;BME280;43090;52.604;13.318;2022-11-30T03:14:54;101819.94;;;3.45;99.31
57234;BME280;43090;52.604;13.318;2022-11-30T03:17:20;101822.22;;;3.59;99.25
57234;BME280;43090;52.604;13.318;2022-11-30T03:19:46;101820.56;;;3.55;98.57
57234;BME280;43090;52.604;13.318;2022-11-30T03:22:13;101822.59;;;3.44;99.27
57234;BME280;43090;52.604;13.318;2022-11-30T03:24:39;101821.41;;;3.57;98.84
57234;BME280;43090;52.604;13.318;2022-11-30T03:27:05;101826.91;;;3.49;97.85
57234;BME280;43090;52.604;13.318;2022-11-30T03:29:32;101826.13;;;3.44;98.41
57234;BME280;43090;52.604;13.318;2022-11-30T03:31:59;101826.13;;;3.44;98.12
57234;BME280;43090;52.604;13.318;2022-11-30T03:34:25;101832.06;;;3.16;98.80
57234;BME280;43090;52.604;13.318;2022-11-30T03:36:53;101829.03;;;3.33;98.39
57234;BME280;43090;52.604;13.318;2022-11-30T03:39:19;101840.56;;;3.31;98.82
57234;BME280;43090;52.604;13.318;2022-11-30T03:41:46;101841.28;;;3.38;98.69
57234;BME280;43090;52.604;13.318;2022-11-30T03:44:12;101839.19;;;3.52;98.32
57234;BME280;43090;52.604;13.318;2022-11-30T03:46:39;101831.34;;;3.47;97.47
57234;BME280;43090;52.604;13.318;2022-11-30T03:49:05;101841.28;;;3.38;98.23
57234;BME280;43090;52.604;13.318;2022-11-30T03:51:32;101837.94;;;3.29;97.88
57234;BME280;43090;52.604;13.318;2022-11-30T03:53:58;101845.78;;;3.34;98.60
57234;BME280;43090;52.604;13.318;2022-11-30T03:56:25;101840.34;;;3.40;98.83
57234;BME280;43090;52.604;13.318;2022-11-30T03:58:51;101837.41;;;3.53;97.90
57234;BME280;43090;52.604;13.318;2022-11-30T04:01:19;101844.84;;;3.37;98.15
57234;BME280;43090;52.604;13.318;2022-11-30T04:03:49;101838.06;;;3.61;97.84
57234;BME280;43090;52.604;13.318;2022-11-30T04:06:16;101842.81;;;3.48;98.30
57234;BME280;43090;52.604;13.318;2022-11-30T04:08:43;101851.50;;;3.53;97.90
57234;BME280;43090;52.604;13.318;2022-11-30T04:11:09;101857.13;;;3.39;98.00
57234;BME280;43090;52.604;13.318;2022-11-30T04:13:36;101849.28;;;3.34;98.55
57234;BME280;43090;52.604;13.318;2022-11-30T04:16:03;101850.47;;;3.21;99.21
57234;BME280;43090;52.604;13.318;2022-11-30T04:18:30;101849.28;;;3.36;99.26
57234;BME280;43090;52.604;13.318;2022-11-30T04:20:57;101857.22;;;3.34;99.37
57234;BME280;43090;52.604;13.318;2022-11-30T04:23:24;101855.63;;;3.27;99.95
57234;BME280;43090;52.604;13.318;2022-11-30T04:25:51;101858.25;;;3.29;99.31
57234;BME280;43090;52.604;13.318;2022-11-30T04:28:18;101846.00;;;3.25;99.52
57234;BME280;43090;52.604;13.318;2022-11-30T04:30:44;101848.50;;;3.29;99.65
57234;BME280;43090;52.604;13.318;2022-11-30T04:33:12;101849.50;;;3.25;99.46
57234;BME280;43090;52.604;13.318;2022-11-30T04:35:46;101855.50;;;3.33;99.38
57234;BME280;43090;52.604;13.318;2022-11-30T04:38:13;101855.53;;;3.32;99.09
57234;BME280;43090;52.604;13.318;2022-11-30T04:40:40;101857.94;;;3.43;98.49
57234;BME280;43090;52.604;13.318;2022-11-30T04:43:07;101864.31;;;3.34;98.48
57234;BME280;43090;52.604;13.318;2022-11-30T04:45:33;101862.72;;;3.25;99.42
57234;BME280;43090;52.604;13.318;2022-11-30T04:48:01;101872.75;;;3.11;99.98
57234;BME280;43090;52.604;13.318;2022-11-30T04:50:27;101876.81;;;3.27;99.79
57234;BME280;43090;52.604;13.318;2022-11-30T04:52:53;101873.53;;;3.16;100.00
57234;BME280;43090;52.604;13.318;2022-11-30T04:55:20;101873.72;;;3.08;100.00
57234;BME280;43090;52.604;13.318;2022-11-30T04:57:46;101873.69;;;3.10;100.00
57234;BME280;43090;52.604;13.318;2022-11-30T05:00:13;101868.59;;;3.00;99.53
57234;BME280;43090;52.604;13.318;2022-11-30T05:02:40;101868.31;;;3.13;99.73
57234;BME280;43090;52.604;13.318;2022-11-30T05:05:06;101872.94;;;3.02;99.61
57234;BME280;43090;52.604;13.318;2022-11-30T05:07:33;101862.19;;;3.09;100.00
57234;BME280;43090;52.604;13.318;2022-11-30T05:09:59;101868.78;;;2.90;100.00
57234;BME280;43090;52.604;13.318;2022-11-30T05:12:25;101870.13;;;3.09;100.00
57234;BME280;43090;52.604;13.318;2022-11-30T05:14:52;101876.38;;;3.08;100.00
57234;BME280;43090;52.604;13.318;2022-11-30T05:17:18;101875.16;;;3.23;99.01
57234;BME280;43090;52.604;13.318;2022-11-30T05:19:46;101884.31;;;3.07;99.79
57234;BME280;43090;52.604;13.318;2022-11-30T05:22:13;101890.13;;;3.24;100.00
57234;BME280;43090;52.604;13.318;2022-11-30T05:24:39;101884.69;;;3.30;98.85
57234;BME280;43090;52.604;13.318;2022-11-30T05:27:05;101893.63;;;3.25;98.77
57234;BME280;43090;52.604;13.318;2022-11-30T05:29:40;101896.00;;;3.37;98.32
57234;BME280;43090;52.604;13.318;2022-11-30T05:32:06;101903.31;;;3.26;97.59
57234;BME280;43090;52.604;13.318;2022-11-30T05:34:33;101899.13;;;3.15;97.86
57234;BME280;43090;52.604;13.318;2022-11-30T05:37:15;101903.22;;;3.30;98.11
57234;BME280;43090;52.604;13.318;2022-11-30T05:39:41;101897.34;;;3.17;96.82
57234;BME280;43090;52.604;13.318;2022-11-30T05:42:08;101908.38;;;3.37;97.18
57234;BME280;43090;52.604;13.318;2022-11-30T05:44:34;101901.25;;;3.40;97.46
57234;BME280;43090;52.604;13.318;2022-11-30T05:47:01;101906.75;;;3.29;98.32
57234;BME280;43090;52.604;13.318;2022-11-30T05:49:27;101905.16;;;3.22;98.74
57234;BME280;43090;52.604;13.318;2022-11-30T05:51:54;101909.22;;;3.37;98.35
57234;BME280;43090;52.604;13.318;2022-11-30T05:54:20;101908.28;;;3.40;98.14
57234;BME280;43090;52.604;13.318;2022-11-30T05:56:46;101913.47;;;3.46;98.02
57234;BME280;43090;52.604;13.318;2022-11-30T05:59:19;101910.38;;;3.27;98.75
57234;BME280;43090;52.604;13.318;2022-11-30T06:01:46;101914.88;;;3.22;98.71
57234;BME280;43090;52.604;13.318;2022-11-30T06:04:12;101920.72;;;3.38;97.84
57234;BME280;43090;52.604;13.318;2022-11-30T06:06:39;101924.25;;;3.37;97.96
57234;BME280;43090;52.604;13.318;2022-11-30T06:09:05;101921.88;;;3.24;97.44
57234;BME280;43090;52.604;13.318;2022-11-30T06:11:31;101922.75;;;3.25;97.60
57234;BME280;43090;52.604;13.318;2022-11-30T06:13:58;101924.63;;;3.20;98.39
57234;BME280;43090;52.604;13.318;2022-11-30T06:16:24;101928.16;;;3.19;98.30
57234;BME280;43090;52.604;13.318;2022-11-30T06:18:51;101938.28;;;3.42;97.63
57234;BME280;43090;52.604;13.318;2022-11-30T06:21:17;101932.97;;;3.42;96.69
57234;BME280;43090;52.604;13.318;2022-11-30T06:23:49;101938.19;;;3.45;96.53
57234;BME280;43090;52.604;13.318;2022-11-30T06:26:16;101940.03;;;3.43;96.45
57234;BME280;43090;52.604;13.318;2022-11-30T06:28:42;101937.13;;;3.54;96.07
57234;BME280;43090;52.604;13.318;2022-11-30T06:31:13;101937.19;;;3.50;96.07
57234;BME280;43090;52.604;13.318;2022-11-30T06:33:40;101941.53;;;3.53;95.65
57234;BME280;43090;52.604;13.318;2022-11-30T06:36:06;101947.81;;;3.49;95.83
57234;BME280;43090;52.604;13.318;2022-11-30T06:38:33;101941.56;;;3.52;95.68
57234;BME280;43090;52.604;13.318;2022-11-30T06:41:04;101945.91;;;3.56;95.84
57234;BME280;43090;52.604;13.318;2022-11-30T06:43:32;101945.00;;;3.57;96.18
57234;BME280;43090;52.604;13.318;2022-11-30T06:45:58;101952.09;;;3.56;96.05
57234;BME280;43090;52.604;13.318;2022-11-30T06:48:24;101956.44;;;3.59;95.84
57234;BME280;43090;52.604;13.318;2022-11-30T06:50:51;101958.22;;;3.57;95.82
57234;BME280;43090;52.604;13.318;2022-11-30T06:53:17;101954.03;;;3.46;96.36
57234;BME280;43090;52.604;13.318;2022-11-30T06:55:43;101959.22;;;3.10;96.57
57234;BME280;43090;52.604;13.318;2022-11-30T06:58:10;101949.84;;;3.38;95.84
57234;BME280;43090;52.604;13.318;2022-11-30T07:00:37;101956.84;;;3.39;95.71
57234;BME280;43090;52.604;13.318;2022-11-30T07:03:04;101960.69;;;3.24;96.37
57234;BME280;43090;52.604;13.318;2022-11-30T07:05:34;101961.59;;;3.24;96.35
57234;BME280;43090;52.604;13.318;2022-11-30T07:08:05;101963.47;;;3.19;98.01
57234;BME280;43090;52.604;13.318;2022-11-30T07:10:32;101972.97;;;3.28;97.24
57234;BME280;43090;52.604;13.318;2022-11-30T07:12:58;101969.34;;;3.33;96.32
57234;BME280;43090;52.604;13.318;2022-11-30T07:15:25;101962.88;;;3.47;95.37
57234;BME280;43090;52.604;13.318;2022-11-30T07:17:52;101974.47;;;3.40;95.38
57234;BME280;43090;52.604;13.318;2022-11-30T07:20:18;101977.28;;;3.33;96.47
57234;BME280;43090;52.604;13.318;2022-11-30T07:22:44;101977.66;;;3.15;95.88
57234;BME280;43090;52.604;13.318;2022-11-30T07:25:11;101976.53;;;3.27;96.05
57234;BME280;43090;52.604;13.318;2022-11-30T07:27:57;101976.66;;;3.21;96.86
57234;BME280;43090;52.604;13.318;2022-11-30T07:30:24;101978.31;;;3.26;97.03
57234;BME280;43090;52.604;13.318;2022-11-30T07:32:50;101978.44;;;3.19;96.66
57234;BME280;43090;52.604;13.318;2022-11-30T07:35:17;101981.06;;;3.22;97.65
57234;BME280;43090;52.604;13.318;2022-11-30T07:37:43;101985.34;;;3.27;97.21
57234;BME280;43090;52.604;13.318;2022-11-30T07:40:10;101987.13;;;3.25;96.66
57234;BME280;43090;52.604;13.318;2022-11-30T07:42:36;101991.25;;;3.40;96.73
57234;BME280;43090;52.604;13.318;2022-11-30T07:45:03;101994.16;;;3.28;96.50
57234;BME280;43090;52.604;13.318;2022-11-30T07:47:32;101996.94;;;3.22;96.34
57234;BME280;43090;52.604;13.318;2022-11-30T07:49:58;101993.34;;;3.24;96.87
57234;BME280;43090;52.604;13.318;2022-11-30T07:52:25;101992.81;;;3.07;97.09
57234;BME280;43090;52.604;13.318;2022-11-30T07:54:51;101987.28;;;3.19;97.68
57234;BME280;43090;52.604;13.318;2022-11-30T07:57:17;101990.16;;;3.07;97.47
57234;BME280;43090;52.604;13.318;2022-11-30T07:59:44;101989.91;;;3.21;97.43
57234;BME280;43090;52.604;13.318;2022-11-30T08:02:31;101988.25;;;3.15;97.16
57234;BME280;43090;52.604;13.318;2022-11-30T08:05:05;101994.34;;;3.19;96.88
57234;BME280;43090;52.604;13.318;2022-11-30T08:07:32;101992.63;;;3.17;96.22
57234;BME280;43090;52.604;13.318;2022-11-30T08:09:58;101997.72;;;3.27;96.51
57234;BME280;43090;52.604;13.318;2022-11-30T08:12:25;101990.72;;;3.24;96.16
57234;BME280;43090;52.604;13.318;2022-11-30T08:14:51;101995.22;;;3.19;96.35
57234;BME280;43090;52.604;13.318;2022-11-30T08:35:05;102006.91;;;3.51;94.61
57234;BME280;43090;52.604;13.318;2022-11-30T08:37:34;102016.81;;;3.41;95.28
57234;BME280;43090;52.604;13.318;2022-11-30T08:40:00;102015.13;;;3.37;95.25
57234;BME280;43090;52.604;13.318;2022-11-30T08:42:29;102014.13;;;3.44;95.50
57234;BME280;43090;52.604;13.318;2022-11-30T08:44:56;102026.00;;;3.67;94.92
57234;BME280;43090;52.604;13.318;2022-11-30T08:47:22;102015.69;;;3.53;94.54
57234;BME280;43090;52.604;13.318;2022-11-30T08:49:49;102028.56;;;3.70;93.69
57234;BME280;43090;52.604;13.318;2022-11-30T08:52:15;102028.72;;;3.62;94.09
57234;BME280;43090;52.604;13.318;2022-11-30T08:54:44;102035.97;;;3.54;94.51
57234;BME280;43090;52.604;13.318;2022-11-30T08:57:13;102032.34;;;3.58;94.06
57234;BME280;43090;52.604;13.318;2022-11-30T08:59:39;102031.44;;;3.59;93.47
57234;BME280;43090;52.604;13.318;2022-11-30T09:02:07;102032.47;;;3.54;92.81
57234;BME280;43090;52.604;13.318;2022-11-30T09:04:34;102036.88;;;3.53;92.50
57234;BME280;43090;52.604;13.318;2022-11-30T09:07:01;102033.56;;;3.84;91.46
57234;BME280;43090;52.604;13.318;2022-11-30T09:09:27;102037.25;;;3.78;91.42
57234;BME280;43090;52.604;13.318;2022-11-30T09:11:54;102041.19;;;3.98;90.55
57234;BME280;43090;52.604;13.318;2022-11-30T09:18:31;102043.75;;;4.03;89.80
57234;BME280;43090;52.604;13.318;2022-11-30T09:20:58;102036.28;;;3.81;91.14
57234;BME280;43090;52.604;13.318;2022-11-30T09:23:26;102039.97;;;3.74;91.09
57234;BME280;43090;52.604;13.318;2022-11-30T09:25:59;102038.00;;;3.83;90.49
57234;BME280;43090;52.604;13.318;2022-11-30T09:28:26;102037.81;;;3.91;90.63
57234;BME280;43090;52.604;13.318;2022-11-30T09:30:52;102036.22;;;3.84;90.49
57234;BME280;43090;52.604;13.318;2022-11-30T09:33:21;102041.19;;;3.98;89.18
57234;BME280;43090;52.604;13.318;2022-11-30T09:35:58;102044.78;;;3.95;90.34
57234;BME280;43090;52.604;13.318;2022-11-30T09:38:24;102049.75;;;4.11;89.81
57234;BME280;43090;52.604;13.318;2022-11-30T09:40:54;102054.19;;;4.09;90.37
57234;BME280;43090;52.604;13.318;2022-11-30T09:43:26;102048.56;;;4.24;89.29
57234;BME280;43090;52.604;13.318;2022-11-30T09:49:18;102042.56;;;4.16;89.38
57234;BME280;43090;52.604;13.318;2022-11-30T09:54:51;102041.25;;;3.96;89.97
57234;BME280;43090;52.604;13.318;2022-11-30T09:57:22;102045.44;;;4.07;89.13
57234;BME280;43090;52.604;13.318;2022-11-30T10:00:05;102035.38;;;4.21;88.67
57234;BME280;43090;52.604;13.318;2022-11-30T10:02:38;102034.41;;;4.25;89.15
57234;BME280;43090;52.604;13.318;2022-11-30T10:05:13;102026.88;;;4.07;89.21
57234;BME280;43090;52.604;13.318;2022-11-30T10:10:42;102027.59;;;4.13;90.24
57234;BME280;43090;52.604;13.318;2022-11-30T10:26:56;102032.59;;;4.26;88.91
57234;BME280;43090;52.604;13.318;2022-11-30T10:29:26;102028.84;;;4.36;88.30
57234;BME280;43090;52.604;13.318;2022-11-30T10:31:58;102029.78;;;4.33;88.10
57234;BME280;43090;52.604;13.318;2022-11-30T10:34:30;102037.63;;;4.38;87.93
57234;BME280;43090;52.604;13.318;2022-11-30T10:37:16;102035.06;;;4.33;89.25
57234;BME280;43090;52.604;13.318;2022-11-30T10:42:30;102040.50;;;4.29;88.42
57234;BME280;43090;52.604;13.318;2022-11-30T10:44:59;102033.00;;;4.10;88.95
57234;BME280;43090;52.604;13.318;2022-11-30T10:47:30;102041.28;;;4.34;89.03
57234;BME280;43090;52.604;13.318;2022-11-30T10:49:59;102036.47;;;4.50;87.80
57234;BME280;43090;52.604;13.318;2022-11-30T10:52:27;102037.78;;;4.32;87.90
57234;BME280;43090;52.604;13.318;2022-11-30T10:54:55;102029.50;;;4.44;87.57
57234;BME280;43090;52.604;13.318;2022-11-30T10:57:30;102035.88;;;4.37;88.06
57234;BME280;43090;52.604;13.318;2022-11-30T10:59:57;102036.47;;;4.48;87.03
57234;BME280;43090;52.604;13.318;2022-11-30T11:02:33;102029.75;;;4.71;86.95
57234;BME280;43090;52.604;13.318;2022-11-30T11:05:07;102030.00;;;4.60;86.26
57234;BME280;43090;52.604;13.318;2022-11-30T11:10:44;102036.56;;;4.45;86.84
57234;BME280;43090;52.604;13.318;2022-11-30T11:13:15;102030.56;;;4.73;86.81
57234;BME280;43090;52.604;13.318;2022-11-30T11:15:55;102035.09;;;4.68;86.51
57234;BME280;43090;52.604;13.318;2022-11-30T11:18:23;102041.34;;;4.65;86.17
57234;BME280;43090;52.604;13.318;2022-11-30T11:21:06;102035.47;;;4.54;87.38
57234;BME280;43090;52.604;13.318;2022-11-30T11:23:42;102042.41;;;4.60;86.72
57234;BME280;43090;52.604;13.318;2022-11-30T11:26:24;102043.03;;;4.70;85.75
57234;BME280;43090;52.604;13.318;2022-11-30T11:28:51;102044.78;;;4.71;86.32
57234;BME280;43090;52.604;13.318;2022-11-30T11:31:31;102043.59;;;4.82;85.31
57234;BME280;43090;52.604;13.318;2022-11-30T11:33:59;102050.03;;;4.74;86.70
57234;BME280;43090;52.604;13.318;2022-11-30T11:36:27;102050.25;;;4.63;86.25
57234;BME280;43090;52.604;13.318;2022-11-30T11:38:54;102044.44;;;4.48;85.68
57234;BME280;43090;52.604;13.318;2022-11-30T11:43:58;102056.69;;;4.54;85.97
57234;BME280;43090;52.604;13.318;2022-11-30T11:46:26;102045.66;;;4.35;86.20
57234;BME280;43090;52.604;13.318;2022-11-30T11:51:33;102048.88;;;4.48;87.60
57234;BME280;43090;52.604;13.318;2022-11-30T11:55:01;102065.91;;;4.38;87.00
57234;BME280;43090;52.604;13.318;2022-11-30T11:56:56;102059.06;;;4.29;86.50
57234;BME280;43090;52.604;13.318;2022-11-30T12:02:04;102057.69;;;4.48;85.99
57234;BME280;43090;52.604;13.318;2022-11-30T12:04:47;102059.34;;;4.54;86.16
57234;BME280;43090;52.604;13.318;2022-11-30T12:07:24;102058.97;;;4.32;87.90
57234;BME280;43090;52.604;13.318;2022-11-30T12:12:23;102064.56;;;4.57;87.53
57234;BME280;43090;52.604;13.318;2022-11-30T12:14:50;102061.19;;;4.50;86.44
57234;BME280;43090;52.604;13.318;2022-11-30T12:19:58;102059.84;;;4.32;86.44
57234;BME280;43090;52.604;13.318;2022-11-30T12:22:36;102059.22;;;4.59;86.66
57234;BME280;43090;52.604;13.318;2022-11-30T12:25:17;102068.88;;;4.61;86.76
57234;BME280;43090;52.604;13.318;2022-11-30T12:27:46;102062.75;;;4.59;86.04
57234;BME280;43090;52.604;13.318;2022-11-30T12:38:25;102059.28;;;4.20;87.74
57234;BME280;43090;52.604;13.318;2022-11-30T12:41:06;102068.56;;;4.38;87.95
57234;BME280;43090;52.604;13.318;2022-11-30T12:46:22;102067.97;;;4.26;88.24
57234;BME280;43090;52.604;13.318;2022-11-30T12:49:01;102058.56;;;4.13;88.72
57234;BME280;43090;52.604;13.318;2022-11-30T12:54:04;102063.13;;;4.06;89.29
57234;BME280;43090;52.604;13.318;2022-11-30T12:56:45;102062.41;;;4.37;88.25
57234;BME280;43090;52.604;13.318;2022-11-30T13:04:35;102068.38;;;4.08;89.63
57234;BME280;43090;52.604;13.318;2022-11-30T13:09:31;102071.56;;;4.24;88.27
57234;BME280;43090;52.604;13.318;2022-11-30T13:12:10;102077.44;;;4.37;87.06
57234;BME280;43090;52.604;13.318;2022-11-30T13:14:37;102072.53;;;3.79;88.84
57234;BME280;43090;52.604;13.318;2022-11-30T13:17:05;102075.28;;;3.76;90.20
57234;BME280;43090;52.604;13.318;2022-11-30T13:21:59;102070.16;;;3.66;92.34
57234;BME280;43090;52.604;13.318;2022-11-30T13:24:29;102080.38;;;3.85;90.83
57234;BME280;43090;52.604;13.318;2022-11-30T13:27:01;102066.41;;;3.77;91.04
57234;BME280;43090;52.604;13.318;2022-11-30T13:29:42;102075.84;;;3.89;90.38
57234;BME280;43090;52.604;13.318;2022-11-30T13:32:14;102078.69;;;3.79;90.41
57234;BME280;43090;52.604;13.318;2022-11-30T13:37:59;102075.28;;;3.76;90.63
57234;BME280;43090;52.604;13.318;2022-11-30T13:40:59;102081.97;;;3.50;91.96
57234;BME280;43090;52.604;13.318;2022-11-30T13:43:27;102080.56;;;3.76;91.97
57234;BME280;43090;52.604;13.318;2022-11-30T13:46:00;102075.63;;;3.59;92.37
57234;BME280;43090;52.604;13.318;2022-11-30T13:48:31;102082.06;;;3.44;93.46
57234;BME280;43090;52.604;13.318;2022-11-30T13:50:58;102077.03;;;3.31;93.43
57234;BME280;43090;52.604;13.318;2022-11-30T13:53:26;102078.81;;;3.29;92.80
57234;BME280;43090;52.604;13.318;2022-11-30T13:56:00;102079.56;;;3.38;92.08
57234;BME280;43090;52.604;13.318;2022-11-30T13:58:27;102078.75;;;3.34;91.76
57234;BME280;43090;52.604;13.318;2022-11-30T14:03:40;102082.47;;;2.75;95.12
57234;BME280;43090;52.604;13.318;2022-11-30T14:08:54;102092.78;;;2.89;93.15
57234;BME280;43090;52.604;13.318;2022-11-30T14:11:37;102093.88;;;2.77;93.59
57234;BME280;43090;52.604;13.318;2022-11-30T14:16:49;102096.47;;;2.79;93.55
57234;BME280;43090;52.604;13.318;2022-11-30T14:19:16;102092.00;;;2.84;93.21
57234;BME280;43090;52.604;13.318;2022-11-30T14:21:42;102100.81;;;2.83;93.94
57234;BME280;43090;52.604;13.318;2022-11-30T14:24:19;102105.75;;;2.52;94.65
57234;BME280;43090;52.604;13.318;2022-11-30T14:26:47;102103.53;;;2.22;95.01
57234;BME280;43090;52.604;13.318;2022-11-30T14:31:50;102105.47;;;2.11;96.63
57234;BME280;43090;52.604;13.318;2022-11-30T14:34:23;102108.34;;;1.92;96.09
57234;BME280;43090;52.604;13.318;2022-11-30T14:36:57;102112.88;;;1.84;98.04
57234;BME280;43090;52.604;13.318;2022-11-30T14:39:27;102113.53;;;2.00;97.62
57234;BME280;43090;52.604;13.318;2022-11-30T14:42:24;102110.09;;;1.92;97.47
57234;BME280;43090;52.604;13.318;2022-11-30T14:48:26;102112.00;;;1.82;98.17
57234;BME280;43090;52.604;13.318;2022-11-30T14:50:59;102125.38;;;1.68;98.79
57234;BME280;43090;52.604;13.318;2022-11-30T14:56:38;102133.59;;;1.42;97.79
57234;BME280;43090;52.604;13.318;2022-11-30T14:59:52;102140.91;;;1.12;99.95
57234;BME280;43090;52.604;13.318;2022-11-30T15:02:36;102141.03;;;0.99;100.00
57234;BME280;43090;52.604;13.318;2022-11-30T15:05:12;102140.94;;;1.06;100.00